createdAt,value
2022-08-20T00:02:27.841Z,2.90
2022-08-20T00:08:34.837Z,3.50
2022-08-20T00:11:36.869Z,2.75
2022-08-20T00:14:39.479Z,3.13
2022-08-20T00:17:41.914Z,3.38
2022-08-20T00:20:47.384Z,3.10
2022-08-20T00:23:50.978Z,6.25
2022-08-20T00:26:53.215Z,3.83
2022-08-20T00:29:55.110Z,3.88
2022-08-20T00:33:00.487Z,3.83
2022-08-20T00:36:03.521Z,3.15
2022-08-20T00:39:05.413Z,2.78
2022-08-20T00:45:10.081Z,3.17
2022-08-20T00:48:11.998Z,3.38
2022-08-20T00:51:33.984Z,3.47
2022-08-20T00:54:44.348Z,3.00
2022-08-20T00:58:00.750Z,3.00
2022-08-20T01:01:05.396Z,2.97
2022-08-20T01:04:07.402Z,3.78
2022-08-20T01:07:09.394Z,3.30
2022-08-20T01:13:24.391Z,3.33
2022-08-20T01:16:30.805Z,3.17
2022-08-20T01:19:43.162Z,3.60
2022-08-20T01:23:09.849Z,3.28
2022-08-20T01:26:18.375Z,3.47
2022-08-20T01:29:25.420Z,3.08
2022-08-20T01:32:27.362Z,4.22
2022-08-20T01:38:31.592Z,3.67
2022-08-20T01:41:51.947Z,3.80
2022-08-20T01:44:54.010Z,3.55
2022-08-20T01:47:56.939Z,3.80
2022-08-20T01:51:11.730Z,3.40
2022-08-20T01:54:13.889Z,3.33
2022-08-20T01:57:18.973Z,3.85
2022-08-20T02:00:22.127Z,4.65
2022-08-20T02:03:25.022Z,3.60
2022-08-20T02:06:28.997Z,3.67
2022-08-20T02:09:35.297Z,4.75
2022-08-20T02:12:37.849Z,3.92
2022-08-20T02:15:43.011Z,3.70
2022-08-20T02:18:45.166Z,5.18
2022-08-20T02:24:51.121Z,4.55
2022-08-20T02:30:55.658Z,3.60
2022-08-20T02:34:22.319Z,4.57
2022-08-20T02:37:19.451Z,3.83
2022-08-20T02:43:33.298Z,3.65
2022-08-20T02:46:35.543Z,5.38
2022-08-20T02:49:37.446Z,3.92
2022-08-20T02:55:49.585Z,4.22
2022-08-20T02:58:51.535Z,3.78
2022-08-20T03:01:59.181Z,3.97
2022-08-20T03:08:07.401Z,6.55
2022-08-20T03:11:09.545Z,5.22
2022-08-20T03:14:11.476Z,5.65
2022-08-20T03:20:15.597Z,5.03
2022-08-20T03:23:19.121Z,4.72
2022-08-20T03:26:21.072Z,4.88
2022-08-20T03:32:26.048Z,4.93
2022-08-20T03:35:30.191Z,4.35
2022-08-20T03:38:33.285Z,4.28
2022-08-20T03:41:35.489Z,4.78
2022-08-20T03:44:39.689Z,4.30
2022-08-20T03:47:42.144Z,4.53
2022-08-20T03:50:45.296Z,4.30
2022-08-20T03:53:47.718Z,5.38
2022-08-20T03:56:49.636Z,5.05
2022-08-20T04:03:00.344Z,4.93
2022-08-20T04:09:04.647Z,5.47
2022-08-20T04:12:07.817Z,4.97
2022-08-20T04:15:15.519Z,6.05
2022-08-20T04:18:17.965Z,5.05
2022-08-20T04:24:22.660Z,5.65
2022-08-20T04:27:33.469Z,5.45
2022-08-20T04:30:35.514Z,8.35
2022-08-20T04:33:37.378Z,4.97
2022-08-20T04:36:39.322Z,5.10
2022-08-20T04:39:43.039Z,4.85
2022-08-20T04:45:52.280Z,6.88
2022-08-20T04:48:56.476Z,7.18
2022-08-20T04:51:58.381Z,6.63
2022-08-20T04:58:12.854Z,5.40
2022-08-20T05:01:15.322Z,4.65
2022-08-20T05:04:17.354Z,5.82
2022-08-20T05:10:21.939Z,5.22
2022-08-20T05:13:27.376Z,4.78
2022-08-20T05:16:29.586Z,6.68
2022-08-20T05:19:38.316Z,5.25
2022-08-20T05:22:40.915Z,5.43
2022-08-20T05:25:45.379Z,5.20
2022-08-20T05:28:53.994Z,7.68
2022-08-20T05:32:01.202Z,5.57
2022-08-20T05:35:08.914Z,6.07
2022-08-20T05:38:14.928Z,7.32
2022-08-20T05:41:29.078Z,5.47
2022-08-20T05:44:31.919Z,5.38
2022-08-20T05:50:44.117Z,5.97
2022-08-20T05:53:46.093Z,6.45
2022-08-20T05:56:48.239Z,6.35
2022-08-20T05:59:50.295Z,6.10
2022-08-20T06:02:52.424Z,6.43
2022-08-20T06:05:54.596Z,7.10
2022-08-20T06:08:56.680Z,7.97
2022-08-20T06:12:02.919Z,5.45
2022-08-20T06:15:08.353Z,5.65
2022-08-20T06:18:27.977Z,9.32
2022-08-20T06:21:30.751Z,6.63
2022-08-20T06:27:38.838Z,6.93
2022-08-20T06:30:40.825Z,7.03
2022-08-20T06:36:45.922Z,6.00
2022-08-20T06:39:47.983Z,5.82
2022-08-20T06:42:50.700Z,6.47
2022-08-20T06:45:53.314Z,5.88
2022-08-20T06:48:55.351Z,5.30
2022-08-20T06:51:58.031Z,6.28
2022-08-20T06:55:00.972Z,5.88
2022-08-20T06:58:06.311Z,6.68
2022-08-20T07:01:10.740Z,7.35
2022-08-20T07:04:13.303Z,5.80
2022-08-20T07:07:18.835Z,5.72
2022-08-20T07:10:22.513Z,5.97
2022-08-20T07:13:24.469Z,5.90
2022-08-20T07:16:27.785Z,6.10
2022-08-20T07:19:29.882Z,4.60
2022-08-20T07:22:31.977Z,5.18
2022-08-20T07:25:34.836Z,6.18
2022-08-20T07:28:37.609Z,5.65
2022-08-20T07:31:39.672Z,5.13
2022-08-20T07:34:44.795Z,4.95
2022-08-20T07:37:49.669Z,6.22
2022-08-20T07:41:04.652Z,5.90
2022-08-20T07:44:06.649Z,5.43
2022-08-20T07:47:08.693Z,5.68
2022-08-20T07:50:14.007Z,5.30
2022-08-20T07:53:16.362Z,5.07
2022-08-20T07:56:22.506Z,4.47
2022-08-20T07:59:26.385Z,4.55
2022-08-20T08:02:28.846Z,5.53
2022-08-20T08:05:33.331Z,5.22
2022-08-20T08:08:37.081Z,6.03
2022-08-20T08:11:46.460Z,4.70
2022-08-20T08:14:50.617Z,6.03
2022-08-20T08:17:54.140Z,5.50
2022-08-20T08:20:57.099Z,4.57
2022-08-20T08:23:59.120Z,4.57
2022-08-20T08:27:01.116Z,4.10
2022-08-20T08:30:04.917Z,5.07
2022-08-20T08:33:09.025Z,4.90
2022-08-20T08:36:13.904Z,3.83
2022-08-20T08:39:15.968Z,4.20
2022-08-20T08:42:43.489Z,4.38
2022-08-20T08:45:51.219Z,4.53
2022-08-20T08:48:59.899Z,4.28
2022-08-20T08:52:31.818Z,4.32
2022-08-20T08:55:33.885Z,4.43
2022-08-20T08:58:36.431Z,5.47
2022-08-20T09:01:56.961Z,4.07
2022-08-20T09:05:02.265Z,4.90
2022-08-20T09:08:08.784Z,5.63
2022-08-20T09:11:11.333Z,4.72
2022-08-20T09:14:17.349Z,4.80
2022-08-20T09:17:21.790Z,5.05
2022-08-20T09:20:27.113Z,4.63
2022-08-20T09:23:29.348Z,3.80
2022-08-20T09:26:31.767Z,4.22
2022-08-20T09:29:33.779Z,4.53
2022-08-20T09:32:36.056Z,4.45
2022-08-20T09:35:38.627Z,4.05
2022-08-20T09:38:42.709Z,4.20
2022-08-20T09:41:44.673Z,4.15
2022-08-20T09:44:47.428Z,3.53
2022-08-20T09:47:54.907Z,3.90
2022-08-20T09:50:59.319Z,4.28
2022-08-20T09:54:01.272Z,3.40
2022-08-20T09:57:06.752Z,3.40
2022-08-20T10:00:10.493Z,2.97
2022-08-20T10:03:18.033Z,3.50
2022-08-20T10:06:20.484Z,5.28
2022-08-20T10:09:24.400Z,1.98
2022-08-20T10:12:26.417Z,3.40
2022-08-20T10:15:29.778Z,3.92
2022-08-20T10:18:31.820Z,2.90
2022-08-20T10:21:38.449Z,3.92
2022-08-20T10:24:40.920Z,3.05
2022-08-20T10:27:42.969Z,3.63
2022-08-20T10:30:47.459Z,2.60
2022-08-20T10:33:49.438Z,2.20
2022-08-20T10:36:54.524Z,2.45
2022-08-20T10:39:57.182Z,3.08
2022-08-20T10:42:59.248Z,4.38
2022-08-20T10:46:01.719Z,3.10
2022-08-20T10:49:03.754Z,4.65
2022-08-20T11:03:25.324Z,3.35
2022-08-20T11:06:27.391Z,2.63
2022-08-20T11:09:35.618Z,2.38
2022-08-20T11:12:38.084Z,2.38
2022-08-20T11:15:43.716Z,4.25
2022-08-20T11:18:47.593Z,2.85
2022-08-20T11:21:49.840Z,2.58
2022-08-20T11:24:51.874Z,3.03
2022-08-20T11:27:55.247Z,2.10
2022-08-20T11:30:57.699Z,2.50
2022-08-20T11:34:00.143Z,2.70
2022-08-20T11:37:02.187Z,2.03
2022-08-20T11:40:05.603Z,3.20
2022-08-20T11:43:16.216Z,2.50
2022-08-20T11:46:19.011Z,2.42
2022-08-20T11:49:20.831Z,1.73
2022-08-20T11:52:22.714Z,1.88
2022-08-20T11:55:30.198Z,2.42
2022-08-20T11:58:32.529Z,1.92
2022-08-20T12:01:34.493Z,2.83
2022-08-20T12:04:36.398Z,2.20
2022-08-20T12:07:39.252Z,2.67
2022-08-20T12:10:41.240Z,1.55
2022-08-20T12:13:48.960Z,2.42
2022-08-20T12:16:51.067Z,2.22
2022-08-20T12:19:55.748Z,1.92
2022-08-20T12:22:57.831Z,2.90
2022-08-20T12:26:00.002Z,2.15
2022-08-20T12:29:01.926Z,3.05
2022-08-20T12:32:04.729Z,2.95
2022-08-20T12:35:08.104Z,1.55
2022-08-20T12:38:10.095Z,4.28
2022-08-20T12:41:12.211Z,1.73
2022-08-20T12:44:14.166Z,2.20
2022-08-20T12:47:21.110Z,1.90
2022-08-20T12:50:28.481Z,1.55
2022-08-20T12:53:32.905Z,1.92
2022-08-20T12:56:36.407Z,2.10
2022-08-20T12:59:38.298Z,1.77
2022-08-20T13:02:40.749Z,0.93
2022-08-20T13:05:42.632Z,2.60
2022-08-20T13:08:44.511Z,1.55
2022-08-20T13:11:46.467Z,1.85
2022-08-20T13:14:48.534Z,2.33
2022-08-20T13:17:55.230Z,2.85
2022-08-20T13:20:59.638Z,2.05
2022-08-20T13:24:01.873Z,1.92
2022-08-20T13:27:10.665Z,1.65
2022-08-20T13:30:17.037Z,2.80
2022-08-20T13:33:19.600Z,2.85
2022-08-20T13:36:21.575Z,2.55
2022-08-20T13:39:24.408Z,2.33
2022-08-20T13:42:27.572Z,2.53
2022-08-20T13:45:29.422Z,3.30
2022-08-20T13:48:31.359Z,3.00
2022-08-20T13:51:33.403Z,2.58
2022-08-20T13:54:35.488Z,4.45
2022-08-20T13:57:37.935Z,2.33
2022-08-20T14:00:39.883Z,4.13
2022-08-20T14:03:42.777Z,3.47
2022-08-20T14:06:44.757Z,3.80
2022-08-20T14:09:50.525Z,4.18
2022-08-20T14:12:52.699Z,3.53
2022-08-20T14:15:55.557Z,4.03
2022-08-20T14:18:57.394Z,3.13
2022-08-20T14:21:59.305Z,4.30
2022-08-20T14:25:01.198Z,5.97
2022-08-20T14:28:18.220Z,3.78
2022-08-20T14:31:20.423Z,2.75
2022-08-20T14:34:22.291Z,3.75
2022-08-20T14:37:28.190Z,4.15
2022-08-20T14:40:30.295Z,4.00
2022-08-20T14:43:32.210Z,3.20
2022-08-20T14:46:34.131Z,3.08
2022-08-20T14:49:36.826Z,5.65
2022-08-20T14:52:39.606Z,3.28
2022-08-20T14:55:41.558Z,4.00
2022-08-20T14:58:43.800Z,4.25
2022-08-20T15:01:45.812Z,3.47
2022-08-20T15:04:53.883Z,3.60
2022-08-20T15:07:57.458Z,3.80
2022-08-20T15:11:01.414Z,3.97
2022-08-20T15:14:03.573Z,6.05
2022-08-20T15:17:05.550Z,3.72
2022-08-20T15:20:10.106Z,4.18
2022-08-20T15:23:22.802Z,4.00
2022-08-20T15:26:25.138Z,3.42
2022-08-20T15:29:27.405Z,3.63
2022-08-20T15:32:29.502Z,3.35
2022-08-20T15:35:32.024Z,4.15
2022-08-20T15:38:34.214Z,5.82
2022-08-20T15:41:36.144Z,4.32
2022-08-20T15:44:38.080Z,3.63
2022-08-20T15:47:56.236Z,4.25
2022-08-20T15:51:16.979Z,4.25
2022-08-20T15:54:23.446Z,3.33
2022-08-20T15:57:25.371Z,6.07
2022-08-20T16:01:23.806Z,3.40
2022-08-20T16:04:49.107Z,4.07
2022-08-20T16:07:51.042Z,5.00
2022-08-20T16:11:18.237Z,4.63
2022-08-20T16:14:34.632Z,4.18
2022-08-20T16:18:26.062Z,2.97
2022-08-20T16:21:34.871Z,4.40
2022-08-20T16:24:36.743Z,3.75
2022-08-20T16:27:53.135Z,4.88
2022-08-20T16:31:09.760Z,3.60
2022-08-20T16:34:34.738Z,3.53
2022-08-20T16:37:46.419Z,6.30
2022-08-20T16:40:55.084Z,4.22
2022-08-20T16:44:23.661Z,4.43
2022-08-20T16:47:29.949Z,4.32
2022-08-20T16:50:39.074Z,3.72
2022-08-20T16:53:40.909Z,3.35
2022-08-20T16:56:46.897Z,3.28
2022-08-20T17:00:05.595Z,4.82
2022-08-20T17:03:31.226Z,3.28
2022-08-20T17:06:47.480Z,3.30
2022-08-20T17:09:50.350Z,3.05
2022-08-20T17:12:59.350Z,3.92
2022-08-20T17:16:17.450Z,4.05
2022-08-20T17:19:27.133Z,3.55
2022-08-20T17:22:30.981Z,4.35
2022-08-20T17:25:35.700Z,3.33
2022-08-20T17:28:37.779Z,4.35
2022-08-20T17:31:47.726Z,3.65
2022-08-20T17:34:53.400Z,5.85
2022-08-20T17:37:56.165Z,6.03
2022-08-20T17:41:01.144Z,4.32
2022-08-20T17:44:09.445Z,4.68
2022-08-20T17:47:16.461Z,4.72
2022-08-20T17:50:23.616Z,6.40
2022-08-20T17:53:38.531Z,4.55
2022-08-20T17:56:43.247Z,5.20
2022-08-20T18:00:00.622Z,9.38
2022-08-20T18:03:17.507Z,7.53
2022-08-20T18:06:46.969Z,5.60
2022-08-20T18:10:13.831Z,14.10
2022-08-20T18:13:22.445Z,10.57
2022-08-20T18:16:42.359Z,6.53
2022-08-20T18:20:02.870Z,6.53
2022-08-20T18:23:20.414Z,12.35
2022-08-20T18:26:29.752Z,8.77
2022-08-20T18:29:38.956Z,6.43
2022-08-20T18:32:40.915Z,7.65
2022-08-20T18:35:45.574Z,9.10
2022-08-20T18:39:07.090Z,7.03
2022-08-20T18:42:22.381Z,9.70
2022-08-20T18:45:35.684Z,5.95
2022-08-20T18:48:38.047Z,7.03
2022-08-20T18:51:49.557Z,7.00
2022-08-20T18:54:55.351Z,10.82
2022-08-20T18:58:03.611Z,6.18
2022-08-20T19:01:12.542Z,3.55
2022-08-20T19:04:31.173Z,7.22
2022-08-20T19:07:45.720Z,5.03
2022-08-20T19:11:00.643Z,4.72
2022-08-20T19:14:27.536Z,4.03
2022-08-20T19:17:49.128Z,4.20
2022-08-20T19:21:03.033Z,4.57
2022-08-20T19:27:09.502Z,6.15
2022-08-20T19:30:11.917Z,6.53
2022-08-20T19:33:14.028Z,4.30
2022-08-20T19:36:22.931Z,4.85
2022-08-20T19:39:34.442Z,5.78
2022-08-20T19:42:43.631Z,4.80
2022-08-20T19:45:49.384Z,4.22
2022-08-20T19:49:18.669Z,4.80
2022-08-20T19:52:52.944Z,3.63
2022-08-20T19:56:02.906Z,5.45
2022-08-20T19:59:08.413Z,5.32
2022-08-20T20:02:21.466Z,5.88
2022-08-20T20:05:23.783Z,5.28
2022-08-20T20:08:37.352Z,4.50
2022-08-20T20:11:52.935Z,4.95
2022-08-20T20:14:55.593Z,6.82
2022-08-20T20:17:57.903Z,7.50
2022-08-20T20:21:25.380Z,4.47
2022-08-20T20:24:31.252Z,4.22
2022-08-20T20:27:34.829Z,5.95
2022-08-20T20:30:38.768Z,5.65
2022-08-20T20:33:44.785Z,5.80
2022-08-20T20:36:48.895Z,4.88
2022-08-20T20:40:04.682Z,4.63
2022-08-20T20:43:10.290Z,5.80
2022-08-20T20:46:22.272Z,4.88
2022-08-20T20:49:28.940Z,6.53
2022-08-20T20:52:34.071Z,5.28
2022-08-20T20:55:38.317Z,3.95
2022-08-20T20:58:53.865Z,6.00
2022-08-20T21:01:58.195Z,5.70
2022-08-20T21:05:00.275Z,5.35
2022-08-20T21:08:06.026Z,4.75
2022-08-20T21:11:11.472Z,4.53
2022-08-20T21:14:13.729Z,5.70
2022-08-20T21:17:19.248Z,6.13
2022-08-20T21:20:22.892Z,4.38
2022-08-20T21:23:40.059Z,5.00
2022-08-20T21:26:44.352Z,5.25
2022-08-20T21:29:46.565Z,7.13
2022-08-20T21:32:51.090Z,5.20
2022-08-20T21:35:53.252Z,5.03
2022-08-20T21:38:55.566Z,6.38
2022-08-20T21:42:02.132Z,7.30
2022-08-20T21:45:08.199Z,6.82
2022-08-20T21:48:10.365Z,5.25
2022-08-20T21:51:12.565Z,6.68
2022-08-20T21:54:14.985Z,4.78
2022-08-20T21:57:28.865Z,7.10
2022-08-20T22:00:52.021Z,4.53
2022-08-20T22:03:54.191Z,7.22
2022-08-20T22:06:56.522Z,7.20
2022-08-20T22:09:58.602Z,5.45
2022-08-20T22:13:01.650Z,6.00
2022-08-20T22:16:09.502Z,8.50
2022-08-20T22:19:15.954Z,7.18
2022-08-20T22:22:20.948Z,4.30
2022-08-20T22:25:23.376Z,5.05
2022-08-20T22:28:25.617Z,4.55
2022-08-20T22:31:30.665Z,5.03
2022-08-20T22:34:34.647Z,5.72
2022-08-20T22:37:37.025Z,5.97
2022-08-20T22:40:39.130Z,4.65
2022-08-20T22:43:46.271Z,6.25
2022-08-20T22:47:01.884Z,5.43
2022-08-20T22:50:04.924Z,4.28
2022-08-20T22:53:07.759Z,6.57
2022-08-20T22:56:12.387Z,6.05
2022-08-20T22:59:23.173Z,4.32
2022-08-20T23:02:25.612Z,5.25
2022-08-20T23:05:29.691Z,5.25
2022-08-20T23:08:31.981Z,5.43
2022-08-20T23:11:34.115Z,3.80
2022-08-20T23:14:39.517Z,5.05
2022-08-20T23:20:50.255Z,4.90
2022-08-20T23:23:52.750Z,7.57
2022-08-20T23:26:55.088Z,6.43
2022-08-20T23:33:01.432Z,4.47
2022-08-20T23:36:07.782Z,4.80
2022-08-20T23:39:10.900Z,5.93
2022-08-20T23:42:14.205Z,6.20
2022-08-20T23:45:16.667Z,6.00
2022-08-20T23:48:18.608Z,5.63
2022-08-20T23:54:22.947Z,5.55
